NCAR-RAP Real-Time Weather Data

Output produced by METARs form (19 June 2019  11:23 UTC)
found at http://weather.rap.ucar.edu/surface/
 
KLAS 191056Z 21003KT 10SM CLR 28/02 A2986 RMK AO2 SLP080 T02780017
KLAS 190956Z 20004KT 10SM CLR 28/01 A2985 RMK AO2 SLP078 T02830006
KLAS 190856Z 17006KT 10SM CLR 30/00 A2985 RMK AO2 SLP078 T03000000 58001
KLAS 190756Z 00000KT 10SM CLR 31/M02 A2986 RMK AO2 SLP081 T03061017 403830261
KLAS 190656Z 18003KT 10SM FEW250 31/02 A2986 RMK AO2 SLP081 T03110022
KLAS 190556Z 19004KT 10SM FEW120 FEW250 33/M01 A2986 RMK AO2 SLP079 T03331011 10383 20328 51010
KLAS 190456Z 19006KT 10SM FEW120 FEW250 34/M01 A2985 RMK AO2 SLP077 T03441011
KLAS 190356Z 17003KT 10SM FEW120 FEW250 36/04 A2983 RMK AO2 SLP071 T03560039
KLAS 190256Z 17004KT 10SM FEW120 FEW250 36/03 A2982 RMK AO2 SLP069 T03610033 55003
KLAS 190156Z 00000KT 10SM FEW120 FEW250 37/03 A2982 RMK AO2 SLP068 T03720033
KLAS 190056Z 05006KT 10SM FEW120 FEW250 37/03 A2982 RMK AO2 SLP067 T03720033
KLAS 182356Z 00000KT 10SM FEW120 FEW250 37/04 A2983 RMK AO2 SLP073 T03670039 10383 20322 58019
KLAS 182256Z VRB04KT 10SM FEW120 FEW250 37/04 A2985 RMK AO2 SLP079 T03720039
KLAS 182156Z 06004KT 10SM FEW120 FEW250 37/03 A2987 RMK AO2 SLP086 T03670033
KLAS 182056Z 00000KT 10SM SCT120 SCT250 36/03 A2989 RMK AO2 SLP092 ACC DSNT ALQDS T03610028 58015
KLAS 181956Z 01004KT 10SM SCT120 SCT250 36/05 A2991 RMK AO2 LTG DSNT N AND NW SLP098 CB DSNT N T03560050
KLAS 181856Z VRB05KT 10SM FEW120 FEW250 33/06 A2993 RMK AO2 SLP106 T03330061
KLAS 181756Z 00000KT 10SM FEW120 FEW250 33/06 A2994 RMK AO2 SLP109 T03280056 10328 20261 51003
KLAS 181656Z 03005KT 10SM FEW120 FEW250 32/06 A2994 RMK AO2 SLP107 T03170061